Time,TemperatureF,DewpointF,PressureIn,WindDirection,WindDirectionDegrees,WindSpeedMPH,WindSpeedGustMPH,Humidity,HourlyPrecipIn,Conditions,Clouds,dailyrainin,SoftwareType,DateUTC
2013-06-25 00:01:00,67.0,62.0,29.87,NW,315,0.0,0.0,84,0.02,,,0.00,WUHU21636XXSP,2013-06-25 05:01:00,
2013-06-25 00:06:00,67.0,62.0,29.85,NNW,337,0.0,0.0,84,0.04,,,0.02,WUHU21636XXSP,2013-06-25 05:06:00,
2013-06-25 00:11:00,67.0,62.0,29.85,SSE,157,0.0,0.0,84,0.04,,,0.02,WUHU21636XXSP,2013-06-25 05:11:00,
2013-06-25 00:16:00,67.0,62.4,29.84,East,90,0.0,2.2,85,0.04,,,0.02,WUHU21636XXSP,2013-06-25 05:16:00,
2013-06-25 00:21:00,67.0,62.4,29.84,ESE,112,0.0,2.2,85,0.04,,,0.02,WUHU21636XXSP,2013-06-25 05:21:00,
2013-06-25 00:26:00,67.0,62.4,29.85,NE,45,0.0,0.0,85,0.04,,,0.02,WUHU21636XXSP,2013-06-25 05:26:00,
2013-06-25 00:31:00,67.0,62.4,29.85,East,90,0.0,0.0,85,0.04,,,0.02,WUHU21636XXSP,2013-06-25 05:31:00,
2013-06-25 00:36:00,67.0,62.4,29.87,NE,45,0.0,0.0,85,0.04,,,0.02,WUHU21636XXSP,2013-06-25 05:36:00,
2013-06-25 00:41:00,67.0,62.4,29.88,NNE,22,0.0,0.0,85,0.04,,,0.02,WUHU21636XXSP,2013-06-25 05:41:00,
2013-06-25 00:46:00,67.0,62.0,29.88,NNE,22,0.0,0.0,84,0.04,,,0.02,WUHU21636XXSP,2013-06-25 05:46:00,
2013-06-25 00:51:00,67.0,62.4,29.89,North,0,0.0,0.0,85,0.04,,,0.04,WUHU21636XXSP,2013-06-25 05:51:00,
2013-06-25 00:56:00,67.0,62.4,29.89,NW,315,0.0,0.0,85,0.04,,,0.04,WUHU21636XXSP,2013-06-25 05:56:00,
2013-06-25 01:01:00,67.0,62.4,29.89,NW,315,0.0,0.0,85,0.06,,,0.06,WUHU21636XXSP,2013-06-25 06:01:00,
2013-06-25 01:06:00,67.0,62.4,29.88,North,0,0.0,0.0,85,0.06,,,0.06,WUHU21636XXSP,2013-06-25 06:06:00,
2013-06-25 01:11:00,67.0,62.4,29.89,NNW,337,0.0,0.0,85,0.06,,,0.08,WUHU21636XXSP,2013-06-25 06:11:00,
2013-06-25 01:16:00,67.0,62.4,29.89,NNW,337,0.0,0.0,85,0.06,,,0.08,WUHU21636XXSP,2013-06-25 06:16:00,
2013-06-25 01:21:00,67.0,62.4,29.89,NNW,337,0.0,0.0,85,0.08,,,0.10,WUHU21636XXSP,2013-06-25 06:21:00,
2013-06-25 01:26:00,67.0,62.4,29.87,NNE,22,0.0,0.0,85,0.08,,,0.10,WUHU21636XXSP,2013-06-25 06:26:00,
2013-06-25 01:31:00,67.0,62.4,29.87,NNE,22,0.0,0.0,85,0.10,,,0.12,WUHU21636XXSP,2013-06-25 06:31:00,
2013-06-25 01:36:00,67.0,62.4,29.87,NNE,22,0.0,0.0,85,0.10,,,0.12,WUHU21636XXSP,2013-06-25 06:36:00,
2013-06-25 01:41:00,67.0,62.4,29.87,NNE,22,0.0,0.0,85,0.12,,,0.14,WUHU21636XXSP,2013-06-25 06:41:00,
2013-06-25 01:46:00,66.8,62.1,29.89,WNW,292,0.0,0.0,85,0.12,,,0.14,WUHU21636XXSP,2013-06-25 06:46:00,
2013-06-25 01:51:00,66.8,62.1,29.88,WNW,292,0.0,0.0,85,0.14,,,0.18,WUHU21636XXSP,2013-06-25 06:51:00,
2013-06-25 01:56:00,66.8,62.1,29.88,WNW,292,0.0,0.0,85,0.16,,,0.20,WUHU21636XXSP,2013-06-25 06:56:00,
2013-06-25 02:01:00,66.8,62.1,29.87,NE,45,0.0,0.0,85,0.18,,,0.22,WUHU21636XXSP,2013-06-25 07:01:00,
2013-06-25 02:06:00,66.8,62.1,29.87,NE,45,0.0,0.0,85,0.18,,,0.24,WUHU21636XXSP,2013-06-25 07:06:00,
2013-06-25 02:11:00,66.7,62.0,29.85,East,90,5.8,5.8,85,0.18,,,0.26,WUHU21636XXSP,2013-06-25 07:11:00,
2013-06-25 02:16:00,66.5,61.8,29.85,ENE,67,4.8,5.8,85,0.22,,,0.30,WUHU21636XXSP,2013-06-25 07:16:00,
2013-06-25 02:21:00,66.5,61.8,29.87,ESE,112,0.0,5.8,85,0.22,,,0.30,WUHU21636XXSP,2013-06-25 07:21:00,
2013-06-25 02:26:00,66.3,61.6,29.89,ESE,112,0.0,0.0,85,0.26,,,0.37,WUHU21636XXSP,2013-06-25 07:26:00,
2013-06-25 02:31:00,66.0,61.4,29.88,ESE,112,0.0,0.0,85,0.26,,,0.37,WUHU21636XXSP,2013-06-25 07:31:00,
2013-06-25 02:36:00,66.0,61.4,29.87,East,90,0.0,0.0,85,0.26,,,0.39,WUHU21636XXSP,2013-06-25 07:36:00,
2013-06-25 02:41:00,66.0,61.4,29.87,NNW,337,0.0,0.0,85,0.33,,,0.46,WUHU21636XXSP,2013-06-25 07:41:00,
2013-06-25 02:46:00,66.0,61.4,29.89,WSW,247,5.2,5.2,85,0.39,,,0.55,WUHU21636XXSP,2013-06-25 07:46:00,
2013-06-25 02:51:00,65.8,61.2,29.87,ESE,112,0.0,5.2,85,0.51,,,0.65,WUHU21636XXSP,2013-06-25 07:51:00,
2013-06-25 02:56:00,65.8,60.9,29.87,NNW,337,0.0,5.2,84,0.55,,,0.77,WUHU21636XXSP,2013-06-25 07:56:00,
2013-06-25 03:01:00,65.8,60.9,29.87,NNW,337,0.0,0.0,84,0.59,,,0.81,WUHU21636XXSP,2013-06-25 08:01:00,
2013-06-25 03:06:00,65.5,60.6,29.86,North,0,0.0,0.0,84,0.63,,,0.83,WUHU21636XXSP,2013-06-25 08:06:00,
2013-06-25 03:11:00,65.5,60.9,29.86,NNW,337,0.0,0.0,85,0.65,,,0.91,WUHU21636XXSP,2013-06-25 08:11:00,
2013-06-25 03:16:00,65.5,60.6,29.86,WNW,292,0.0,0.0,84,0.65,,,0.96,WUHU21636XXSP,2013-06-25 08:16:00,
2013-06-25 03:21:00,65.5,60.9,29.86,West,270,0.0,0.0,85,0.69,,,1.00,WUHU21636XXSP,2013-06-25 08:21:00,
2013-06-25 03:26:00,65.3,60.7,29.84,WSW,247,3.4,23.2,85,0.77,,,1.14,WUHU21636XXSP,2013-06-25 08:26:00,
2013-06-25 03:31:00,65.1,60.5,29.84,SSE,157,0.0,23.2,85,0.77,,,1.14,WUHU21636XXSP,2013-06-25 08:31:00,
2013-06-25 03:36:00,65.1,60.5,29.85,SSE,157,0.0,0.0,85,0.77,,,1.16,WUHU21636XXSP,2013-06-25 08:36:00,
2013-06-25 03:41:00,65.3,60.7,29.87,SSE,157,0.0,0.0,85,0.77,,,1.16,WUHU21636XXSP,2013-06-25 08:41:00,
2013-06-25 03:46:00,65.1,60.5,29.88,East,90,0.0,0.0,85,0.57,,,1.16,WUHU21636XXSP,2013-06-25 08:46:00,
2013-06-25 03:51:00,65.3,60.7,29.89,East,90,0.0,0.0,85,0.57,,,1.18,WUHU21636XXSP,2013-06-25 08:51:00,
2013-06-25 03:56:00,65.3,60.7,29.88,East,90,0.0,0.0,85,0.47,,,1.24,WUHU21636XXSP,2013-06-25 08:56:00,
2013-06-25 04:01:00,65.1,60.5,29.88,ENE,67,0.0,0.0,85,0.49,,,1.32,WUHU21636XXSP,2013-06-25 09:01:00,
2013-06-25 04:06:00,65.1,60.5,29.87,ENE,67,0.0,0.0,85,0.49,,,1.32,WUHU21636XXSP,2013-06-25 09:06:00,
2013-06-25 04:11:00,65.1,60.5,29.88,ENE,67,0.0,0.0,85,0.43,,,1.34,WUHU21636XXSP,2013-06-25 09:11:00,
2013-06-25 04:16:00,65.1,60.5,29.86,ESE,112,0.0,0.0,85,0.43,,,1.34,WUHU21636XXSP,2013-06-25 09:16:00,
2013-06-25 04:21:00,65.1,60.5,29.86,ESE,112,0.0,0.0,85,0.37,,,1.36,WUHU21636XXSP,2013-06-25 09:21:00,
2013-06-25 04:26:00,65.1,60.5,29.85,ESE,112,0.0,0.0,85,0.37,,,1.36,WUHU21636XXSP,2013-06-25 09:26:00,
2013-06-25 04:31:00,65.1,60.5,29.85,ESE,112,0.0,0.0,85,0.37,,,1.36,WUHU21636XXSP,2013-06-25 09:31:00,
2013-06-25 04:36:00,65.1,60.5,29.86,ESE,112,0.0,0.0,85,0.37,,,1.36,WUHU21636XXSP,2013-06-25 09:36:00,
2013-06-25 04:41:00,65.1,60.5,29.84,ESE,112,0.0,0.0,85,0.37,,,1.36,WUHU21636XXSP,2013-06-25 09:41:00,
2013-06-25 04:46:00,64.9,60.3,29.85,ESE,112,0.0,0.0,85,0.37,,,1.36,WUHU21636XXSP,2013-06-25 09:46:00,
2013-06-25 04:51:00,64.9,60.3,29.85,North,0,0.0,0.0,85,0.37,,,1.36,WUHU21636XXSP,2013-06-25 09:51:00,
2013-06-25 04:56:00,64.9,60.3,29.84,North,0,0.0,0.0,85,0.37,,,1.36,WUHU21636XXSP,2013-06-25 09:56:00,
2013-06-25 05:01:00,64.9,60.3,29.84,North,0,0.0,0.0,85,0.04,,,1.36,WUHU21636XXSP,2013-06-25 10:01:00,
2013-06-25 05:06:00,64.9,60.3,29.83,NE,45,0.0,0.0,85,0.04,,,1.36,WUHU21636XXSP,2013-06-25 10:06:00,
2013-06-25 05:11:00,64.9,60.3,29.82,WSW,247,0.0,0.0,85,0.04,,,1.36,WUHU21636XXSP,2013-06-25 10:11:00,
2013-06-25 05:16:00,64.9,60.3,29.82,East,90,0.0,0.0,85,0.04,,,1.36,WUHU21636XXSP,2013-06-25 10:16:00,
2013-06-25 05:22:00,64.8,60.2,29.82,ESE,112,0.0,0.0,85,0.04,,,1.36,WUHU21636XXSP,2013-06-25 10:22:00,
2013-06-25 05:27:00,64.8,60.2,29.82,ESE,112,0.0,0.0,85,0.04,,,1.36,WUHU21636XXSP,2013-06-25 10:27:00,
2013-06-25 05:32:00,64.8,60.2,29.82,ESE,112,0.0,0.0,85,0.04,,,1.36,WUHU21636XXSP,2013-06-25 10:32:00,
2013-06-25 05:37:00,64.8,60.2,29.83,ESE,112,0.0,0.0,85,0.04,,,1.36,WUHU21636XXSP,2013-06-25 10:37:00,
2013-06-25 05:42:00,64.8,60.2,29.83,ESE,112,0.0,0.0,85,0.04,,,1.36,WUHU21636XXSP,2013-06-25 10:42:00,
2013-06-25 05:46:00,64.8,60.2,29.84,ESE,112,0.0,0.0,85,0.04,,,1.36,WUHU21636XXSP,2013-06-25 10:46:00,
2013-06-25 05:52:00,64.8,60.2,29.84,ESE,112,0.0,0.0,85,0.04,,,1.36,WUHU21636XXSP,2013-06-25 10:52:00,
2013-06-25 05:57:00,64.8,60.2,29.83,ESE,112,0.0,0.0,85,0.04,,,1.36,WUHU21636XXSP,2013-06-25 10:57:00,
2013-06-25 06:01:00,64.9,60.3,29.83,ESE,112,0.0,0.0,85,0.00,,,1.36,WUHU21636XXSP,2013-06-25 11:01:00,
2013-06-25 06:06:00,64.8,60.2,29.82,ESE,112,0.0,0.0,85,0.00,,,1.36,WUHU21636XXSP,2013-06-25 11:06:00,
2013-06-25 06:11:00,64.8,60.2,29.81,ESE,112,0.0,0.0,85,0.00,,,1.36,WUHU21636XXSP,2013-06-25 11:11:00,
2013-06-25 06:16:00,64.8,60.2,29.80,ESE,112,0.0,0.0,85,0.00,,,1.36,WUHU21636XXSP,2013-06-25 11:16:00,
2013-06-25 06:21:00,64.8,60.2,29.82,ESE,112,0.0,0.0,85,0.00,,,1.36,WUHU21636XXSP,2013-06-25 11:21:00,
2013-06-25 06:26:00,64.8,60.2,29.82,ESE,112,0.0,0.0,85,0.00,,,1.36,WUHU21636XXSP,2013-06-25 11:26:00,
2013-06-25 06:31:00,64.8,60.2,29.83,ESE,112,0.0,0.0,85,0.00,,,1.36,WUHU21636XXSP,2013-06-25 11:31:00,
2013-06-25 06:36:00,64.9,60.3,29.84,ESE,112,0.0,0.0,85,0.00,,,1.36,WUHU21636XXSP,2013-06-25 11:36:00,
2013-06-25 06:42:00,65.1,60.5,29.84,ESE,112,0.0,0.0,85,0.00,,,1.36,WUHU21636XXSP,2013-06-25 11:42:00,
2013-06-25 06:47:00,65.3,60.7,29.84,ESE,112,0.0,0.0,85,0.00,,,1.36,WUHU21636XXSP,2013-06-25 11:47:00,
2013-06-25 06:52:00,65.1,60.5,29.86,ESE,112,0.0,0.0,85,0.00,,,1.36,WUHU21636XXSP,2013-06-25 11:52:00,
2013-06-25 06:57:00,65.3,60.7,29.87,East,90,0.0,0.0,85,0.00,,,1.36,WUHU21636XXSP,2013-06-25 11:57:00,
2013-06-25 07:02:00,65.1,60.5,29.87,East,90,0.0,0.0,85,0.00,,,1.36,WUHU21636XXSP,2013-06-25 12:02:00,
2013-06-25 07:07:00,65.1,60.5,29.87,NW,315,0.0,0.0,85,0.00,,,1.36,WUHU21636XXSP,2013-06-25 12:07:00,
2013-06-25 07:12:00,65.3,60.7,29.88,NW,315,0.0,0.0,85,0.00,,,1.36,WUHU21636XXSP,2013-06-25 12:12:00,
2013-06-25 07:17:00,65.3,60.7,29.87,NW,315,0.0,0.0,85,0.00,,,1.36,WUHU21636XXSP,2013-06-25 12:17:00,
2013-06-25 07:22:00,65.5,60.9,29.88,NW,315,0.0,0.0,85,0.00,,,1.36,WUHU21636XXSP,2013-06-25 12:22:00,
2013-06-25 07:27:00,65.5,60.6,29.88,NW,315,0.0,0.0,84,0.00,,,1.36,WUHU21636XXSP,2013-06-25 12:27:00,
2013-06-25 07:32:00,65.5,60.6,29.88,NW,315,0.0,0.0,84,0.00,,,1.36,WUHU21636XXSP,2013-06-25 12:32:00,
2013-06-25 07:37:00,65.5,60.6,29.88,NW,315,0.0,0.0,84,0.00,,,1.36,WUHU21636XXSP,2013-06-25 12:37:00,
2013-06-25 07:42:00,65.7,61.1,29.88,NW,315,0.0,0.0,85,0.00,,,1.36,WUHU21636XXSP,2013-06-25 12:42:00,
2013-06-25 07:47:00,65.7,60.8,29.88,NW,315,0.0,0.0,84,0.00,,,1.36,WUHU21636XXSP,2013-06-25 12:47:00,
2013-06-25 07:52:00,65.8,60.9,29.88,NW,315,0.0,0.0,84,0.00,,,1.36,WUHU21636XXSP,2013-06-25 12:52:00,
2013-06-25 07:57:00,65.8,60.9,29.88,NW,315,0.0,0.0,84,0.00,,,1.36,WUHU21636XXSP,2013-06-25 12:57:00,
2013-06-25 08:02:00,65.8,61.2,29.87,NW,315,0.0,0.0,85,0.00,,,1.36,WUHU21636XXSP,2013-06-25 13:02:00,
2013-06-25 08:07:00,65.8,60.9,29.87,NW,315,0.0,0.0,84,0.00,,,1.36,WUHU21636XXSP,2013-06-25 13:07:00,
2013-06-25 08:12:00,65.8,61.2,29.86,NW,315,0.0,0.0,85,0.00,,,1.36,WUHU21636XXSP,2013-06-25 13:12:00,
2013-06-25 08:17:00,66.0,61.4,29.86,NW,315,0.0,0.0,85,0.00,,,1.36,WUHU21636XXSP,2013-06-25 13:17:00,
2013-06-25 08:22:00,66.0,61.4,29.86,NW,315,0.0,0.0,85,0.00,,,1.36,WUHU21636XXSP,2013-06-25 13:22:00,
2013-06-25 08:27:00,66.0,61.4,29.86,NW,315,0.0,0.0,85,0.00,,,1.36,WUHU21636XXSP,2013-06-25 13:27:00,
2013-06-25 08:32:00,66.0,61.4,29.85,NW,315,0.0,0.0,85,0.00,,,1.36,WUHU21636XXSP,2013-06-25 13:32:00,
2013-06-25 08:37:00,66.0,61.4,29.85,NW,315,0.0,0.0,85,0.00,,,1.36,WUHU21636XXSP,2013-06-25 13:37:00,
2013-06-25 08:42:00,66.5,61.8,29.83,WNW,292,0.0,0.0,85,0.00,,,1.36,WUHU21636XXSP,2013-06-25 13:42:00,
2013-06-25 08:47:00,66.5,61.8,29.82,WNW,292,0.0,0.0,85,0.00,,,1.36,WUHU21636XXSP,2013-06-25 13:47:00,
2013-06-25 08:52:00,66.7,62.0,29.82,WSW,247,0.0,0.0,85,0.00,,,1.36,WUHU21636XXSP,2013-06-25 13:52:00,
2013-06-25 08:57:00,66.7,62.0,29.82,WSW,247,0.0,0.0,85,0.00,,,1.36,WUHU21636XXSP,2013-06-25 13:57:00,
2013-06-25 09:02:00,66.7,62.0,29.81,WSW,247,0.0,0.0,85,0.00,,,1.36,WUHU21636XXSP,2013-06-25 14:02:00,
2013-06-25 09:07:00,66.7,62.0,29.81,WSW,247,0.0,0.0,85,0.00,,,1.36,WUHU21636XXSP,2013-06-25 14:07:00,
2013-06-25 09:09:00,66.7,62.0,29.81,WSW,247,0.0,0.0,85,0.00,,,1.36,WUHU21636XXSP,2013-06-25 14:09:00,
2013-06-25 09:12:00,66.7,62.0,29.81,WSW,247,0.0,0.0,85,0.00,,,1.36,WUHU21636XXSP,2013-06-25 14:12:00,
2013-06-25 09:17:00,66.7,62.0,29.81,WSW,247,0.0,0.0,85,0.00,,,1.36,WUHU21636XXSP,2013-06-25 14:17:00,
2013-06-25 11:32:00,73.1,67.3,29.84,West,270,0.0,0.0,82,0.00,,,1.36,WUHU21636XXSP,2013-06-25 16:32:00,
2013-06-25 11:37:00,73.3,67.5,29.84,WSW,247,0.0,0.0,82,0.00,,,1.36,WUHU21636XXSP,2013-06-25 16:37:00,
2013-06-25 11:42:00,73.6,67.8,29.83,WSW,247,0.0,0.0,82,0.00,,,1.36,WUHU21636XXSP,2013-06-25 16:42:00,
2013-06-25 11:47:00,74.3,68.2,29.83,WSW,247,0.0,0.0,81,0.00,,,1.36,WUHU21636XXSP,2013-06-25 16:47:00,
2013-06-25 11:52:00,74.3,67.9,29.84,West,270,0.0,0.0,80,0.00,,,1.36,WUHU21636XXSP,2013-06-25 16:52:00,
2013-06-25 11:57:00,74.6,68.4,29.84,West,270,0.0,0.0,81,0.00,,,1.36,WUHU21636XXSP,2013-06-25 16:57:00,
2013-06-25 12:02:00,74.6,68.1,29.84,SE,135,0.0,0.0,80,0.00,,,1.36,WUHU21636XXSP,2013-06-25 17:02:00,
2013-06-25 12:07:00,75.3,68.8,29.84,SSE,157,0.0,0.0,80,0.00,,,1.36,WUHU21636XXSP,2013-06-25 17:07:00,
2013-06-25 12:12:00,75.3,68.8,29.84,SW,225,0.0,0.0,80,0.00,,,1.36,WUHU21636XXSP,2013-06-25 17:12:00,
2013-06-25 12:17:00,75.3,68.8,29.84,West,270,0.0,0.0,80,0.00,,,1.36,WUHU21636XXSP,2013-06-25 17:17:00,
2013-06-25 12:22:00,75.5,69.0,29.84,South,180,0.0,0.0,80,0.00,,,1.36,WUHU21636XXSP,2013-06-25 17:22:00,
2013-06-25 12:27:00,75.5,68.6,29.84,WSW,247,0.0,0.0,79,0.00,,,1.36,WUHU21636XXSP,2013-06-25 17:27:00,
2013-06-25 12:32:00,75.5,68.6,29.84,WSW,247,0.0,0.0,79,0.00,,,1.36,WUHU21636XXSP,2013-06-25 17:32:00,
2013-06-25 12:37:00,75.9,69.4,29.84,WNW,292,0.0,0.0,80,0.00,,,1.36,WUHU21636XXSP,2013-06-25 17:37:00,
2013-06-25 12:42:00,75.9,69.4,29.84,WNW,292,0.0,0.0,80,0.00,,,1.36,WUHU21636XXSP,2013-06-25 17:42:00,
2013-06-25 12:47:00,76.1,69.6,29.84,WNW,292,0.0,0.0,80,0.00,,,1.36,WUHU21636XXSP,2013-06-25 17:47:00,
2013-06-25 12:52:00,76.2,69.7,29.84,WNW,292,0.0,0.0,80,0.00,,,1.36,WUHU21636XXSP,2013-06-25 17:52:00,
2013-06-25 12:57:00,76.9,70.7,29.83,WNW,292,0.0,0.0,81,0.00,,,1.36,WUHU21636XXSP,2013-06-25 17:57:00,
2013-06-25 13:02:00,77.2,70.3,29.83,NE,45,0.0,4.0,79,0.00,,,1.36,WUHU21636XXSP,2013-06-25 18:02:00,
2013-06-25 13:07:00,77.4,70.1,29.82,SE,135,0.0,4.0,78,0.00,,,1.36,WUHU21636XXSP,2013-06-25 18:07:00,
2013-06-25 13:12:00,77.8,70.9,29.82,NE,45,0.0,0.0,79,0.00,,,1.36,WUHU21636XXSP,2013-06-25 18:12:00,
2013-06-25 13:17:00,78.5,71.6,29.81,South,180,0.0,0.0,79,0.00,,,1.36,WUHU21636XXSP,2013-06-25 18:17:00,
2013-06-25 13:22:00,79.3,72.0,29.81,SE,135,0.0,0.0,78,0.00,,,1.36,WUHU21636XXSP,2013-06-25 18:22:00,
2013-06-25 13:27:00,79.5,71.8,29.81,SE,135,0.0,0.0,77,0.00,,,1.36,WUHU21636XXSP,2013-06-25 18:27:00,
2013-06-25 13:32:00,79.9,71.8,29.81,ENE,67,0.0,0.0,76,0.00,,,1.36,WUHU21636XXSP,2013-06-25 18:32:00,
2013-06-25 13:37:00,80.0,71.2,29.81,NE,45,0.0,0.0,74,0.00,,,1.36,WUHU21636XXSP,2013-06-25 18:37:00,
2013-06-25 13:42:00,80.0,71.9,29.80,SE,135,0.0,0.0,76,0.00,,,1.36,WUHU21636XXSP,2013-06-25 18:42:00,
2013-06-25 13:47:00,80.2,71.8,29.80,ESE,112,0.0,0.0,75,0.00,,,1.36,WUHU21636XXSP,2013-06-25 18:47:00,
2013-06-25 13:52:00,80.0,71.5,29.80,ESE,112,0.0,0.0,75,0.00,,,1.36,WUHU21636XXSP,2013-06-25 18:52:00,
2013-06-25 13:57:00,80.2,72.1,29.80,ESE,112,0.0,0.0,76,0.00,,,1.36,WUHU21636XXSP,2013-06-25 18:57:00,
2013-06-25 14:02:00,80.2,72.1,29.80,ESE,112,0.0,0.0,76,0.00,,,1.36,WUHU21636XXSP,2013-06-25 19:02:00,
2013-06-25 14:07:00,80.4,72.3,29.80,ESE,112,0.0,0.0,76,0.00,,,1.36,WUHU21636XXSP,2013-06-25 19:07:00,
2013-06-25 14:12:00,80.4,72.0,29.80,ESE,112,0.0,0.0,75,0.00,,,1.36,WUHU21636XXSP,2013-06-25 19:12:00,
2013-06-25 14:17:00,80.2,71.8,29.81,WSW,247,0.0,0.0,75,0.00,,,1.36,WUHU21636XXSP,2013-06-25 19:17:00,
2013-06-25 14:22:00,80.6,72.5,29.80,WSW,247,0.0,0.0,76,0.00,,,1.36,WUHU21636XXSP,2013-06-25 19:22:00,
2013-06-25 14:27:00,80.8,72.7,29.81,SW,225,0.0,0.0,76,0.00,,,1.36,WUHU21636XXSP,2013-06-25 19:27:00,
2013-06-25 14:32:00,81.0,72.5,29.81,SW,225,0.0,0.0,75,0.00,,,1.36,WUHU21636XXSP,2013-06-25 19:32:00,
2013-06-25 14:37:00,81.0,72.5,29.80,SW,225,0.0,0.0,75,0.00,,,1.36,WUHU21636XXSP,2013-06-25 19:37:00,
2013-06-25 14:42:00,81.6,73.5,29.80,SW,225,0.0,0.0,76,0.00,,,1.36,WUHU21636XXSP,2013-06-25 19:42:00,
2013-06-25 14:47:00,81.8,73.7,29.80,SSE,157,0.0,0.0,76,0.00,,,1.36,WUHU21636XXSP,2013-06-25 19:47:00,
2013-06-25 14:52:00,82.3,73.4,29.80,SSE,157,0.0,0.0,74,0.00,,,1.36,WUHU21636XXSP,2013-06-25 19:52:00,
2013-06-25 14:57:00,82.8,73.5,29.80,SSE,157,0.0,0.0,73,0.00,,,1.36,WUHU21636XXSP,2013-06-25 19:57:00,
2013-06-25 15:02:00,83.1,73.7,29.80,SSE,157,0.0,0.0,73,0.00,,,1.36,WUHU21636XXSP,2013-06-25 20:02:00,
2013-06-25 15:07:00,83.3,73.5,29.80,SSE,157,0.0,0.0,72,0.00,,,1.36,WUHU21636XXSP,2013-06-25 20:07:00,
2013-06-25 15:12:00,83.5,73.7,29.79,SSE,157,0.0,0.0,72,0.00,,,1.36,WUHU21636XXSP,2013-06-25 20:12:00,
2013-06-25 15:17:00,83.1,73.3,29.79,ESE,112,0.0,0.0,72,0.00,,,1.36,WUHU21636XXSP,2013-06-25 20:17:00,
2013-06-25 15:22:00,83.1,73.3,29.79,SE,135,0.0,0.0,72,0.00,,,1.36,WUHU21636XXSP,2013-06-25 20:22:00,
2013-06-25 15:27:00,83.1,73.3,29.80,SE,135,0.0,0.0,72,0.00,,,1.36,WUHU21636XXSP,2013-06-25 20:27:00,
2013-06-25 15:32:00,83.1,73.3,29.80,SE,135,0.0,0.0,72,0.00,,,1.36,WUHU21636XXSP,2013-06-25 20:32:00,
2013-06-25 15:37:00,83.1,73.7,29.80,SE,135,0.0,0.0,73,0.00,,,1.36,WUHU21636XXSP,2013-06-25 20:37:00,
2013-06-25 15:42:00,82.8,73.5,29.79,SE,135,0.0,0.0,73,0.00,,,1.36,WUHU21636XXSP,2013-06-25 20:42:00,
2013-06-25 15:47:00,82.7,73.4,29.79,ESE,112,0.0,0.0,73,0.00,,,1.36,WUHU21636XXSP,2013-06-25 20:47:00,
2013-06-25 15:52:00,82.7,73.4,29.79,ESE,112,0.0,0.0,73,0.00,,,1.36,WUHU21636XXSP,2013-06-25 20:52:00,
2013-06-25 15:57:00,82.5,73.2,29.79,SSW,202,0.0,0.0,73,0.00,,,1.36,WUHU21636XXSP,2013-06-25 20:57:00,
2013-06-25 16:02:00,82.3,73.0,29.79,East,90,0.0,0.0,73,0.00,,,1.36,WUHU21636XXSP,2013-06-25 21:02:00,
2013-06-25 16:07:00,82.1,72.8,29.79,ENE,67,0.0,0.0,73,0.00,,,1.36,WUHU21636XXSP,2013-06-25 21:07:00,
2013-06-25 16:12:00,82.8,73.1,29.79,SSW,202,0.0,0.0,72,0.00,,,1.36,WUHU21636XXSP,2013-06-25 21:12:00,
2013-06-25 16:17:00,83.1,73.7,29.79,SSW,202,0.0,0.0,73,0.00,,,1.36,WUHU21636XXSP,2013-06-25 21:17:00,
2013-06-25 16:22:00,83.3,73.9,29.79,SSW,202,0.0,0.0,73,0.00,,,1.36,WUHU21636XXSP,2013-06-25 21:22:00,
2013-06-25 16:27:00,83.3,74.3,29.79,SSW,202,0.0,0.0,74,0.00,,,1.36,WUHU21636XXSP,2013-06-25 21:27:00,
2013-06-25 16:32:00,83.3,74.3,29.79,SSW,202,0.0,0.0,74,0.00,,,1.36,WUHU21636XXSP,2013-06-25 21:32:00,
2013-06-25 16:37:00,82.5,73.2,29.79,WSW,247,0.0,1.6,73,0.00,,,1.36,WUHU21636XXSP,2013-06-25 21:37:00,
2013-06-25 16:42:00,82.5,73.6,29.79,SW,225,0.0,1.6,74,0.00,,,1.36,WUHU21636XXSP,2013-06-25 21:42:00,
2013-06-25 16:47:00,82.8,73.9,29.79,SW,225,0.0,0.0,74,0.00,,,1.36,WUHU21636XXSP,2013-06-25 21:47:00,
2013-06-25 16:52:00,82.8,73.9,29.79,WSW,247,0.0,0.0,74,0.00,,,1.36,WUHU21636XXSP,2013-06-25 21:52:00,
2013-06-25 16:57:00,82.5,73.6,29.78,ESE,112,0.0,0.0,74,0.00,,,1.36,WUHU21636XXSP,2013-06-25 21:57:00,
2013-06-25 17:02:00,82.8,73.9,29.78,ENE,67,4.4,4.4,74,0.00,,,1.36,WUHU21636XXSP,2013-06-25 22:02:00,
2013-06-25 17:07:00,82.8,73.5,29.77,NE,45,0.0,4.4,73,0.00,,,1.36,WUHU21636XXSP,2013-06-25 22:07:00,
2013-06-25 17:12:00,83.5,74.5,29.78,ESE,112,1.2,4.4,74,0.00,,,1.36,WUHU21636XXSP,2013-06-25 22:12:00,
2013-06-25 17:17:00,83.5,73.7,29.78,NE,45,0.0,1.2,72,0.00,,,1.36,WUHU21636XXSP,2013-06-25 22:17:00,
2013-06-25 17:22:00,83.5,73.7,29.77,NE,45,0.0,0.0,72,0.00,,,1.36,WUHU21636XXSP,2013-06-25 22:22:00,
2013-06-25 17:27:00,83.5,74.1,29.78,ESE,112,0.0,0.0,73,0.00,,,1.36,WUHU21636XXSP,2013-06-25 22:27:00,
2013-06-25 17:32:00,82.8,73.1,29.77,ENE,67,0.0,0.0,72,0.00,,,1.36,WUHU21636XXSP,2013-06-25 22:32:00,
2013-06-25 17:37:00,82.8,73.5,29.78,South,180,0.0,0.0,73,0.00,,,1.36,WUHU21636XXSP,2013-06-25 22:37:00,
2013-06-25 17:42:00,82.8,73.5,29.77,ENE,67,0.0,0.0,73,0.00,,,1.36,WUHU21636XXSP,2013-06-25 22:42:00,
2013-06-25 17:47:00,82.5,73.2,29.77,ESE,112,2.2,2.2,73,0.00,,,1.36,WUHU21636XXSP,2013-06-25 22:47:00,
2013-06-25 17:52:00,82.3,73.0,29.77,ENE,67,0.0,2.2,73,0.00,,,1.36,WUHU21636XXSP,2013-06-25 22:52:00,
2013-06-25 17:57:00,82.1,72.8,29.77,East,90,0.0,2.2,73,0.00,,,1.36,WUHU21636XXSP,2013-06-25 22:57:00,
2013-06-25 18:02:00,81.9,73.0,29.77,East,90,0.0,0.0,74,0.00,,,1.36,WUHU21636XXSP,2013-06-25 23:02:00,
2013-06-25 18:07:00,81.9,73.4,29.77,East,90,0.0,0.0,75,0.00,,,1.36,WUHU21636XXSP,2013-06-25 23:07:00,
2013-06-25 18:12:00,81.8,73.3,29.78,East,90,0.0,0.0,75,0.00,,,1.36,WUHU21636XXSP,2013-06-25 23:12:00,
2013-06-25 18:17:00,81.2,73.0,29.77,East,90,0.0,0.0,76,0.00,,,1.36,WUHU21636XXSP,2013-06-25 23:17:00,
2013-06-25 18:22:00,81.0,72.8,29.77,East,90,0.0,0.0,76,0.00,,,1.36,WUHU21636XXSP,2013-06-25 23:22:00,
2013-06-25 18:27:00,81.0,73.2,29.77,East,90,0.0,0.0,77,0.00,,,1.36,WUHU21636XXSP,2013-06-25 23:27:00,
2013-06-25 18:32:00,80.6,73.3,29.77,East,90,0.0,0.0,78,0.00,,,1.36,WUHU21636XXSP,2013-06-25 23:32:00,
2013-06-25 18:37:00,80.6,72.9,29.77,ENE,67,0.0,0.0,77,0.00,,,1.36,WUHU21636XXSP,2013-06-25 23:37:00,
2013-06-25 18:42:00,80.4,72.3,29.77,ENE,67,0.0,0.0,76,0.00,,,1.36,WUHU21636XXSP,2013-06-25 23:42:00,
2013-06-25 18:48:00,80.4,72.3,29.77,ENE,67,0.0,0.0,76,0.00,,,1.36,WUHU21636XXSP,2013-06-25 23:48:00,
2013-06-25 18:53:00,80.6,72.9,29.77,ENE,67,0.0,0.0,77,0.00,,,1.36,WUHU21636XXSP,2013-06-25 23:53:00,
2013-06-25 18:58:00,80.6,72.9,29.77,ENE,67,0.0,0.0,77,0.00,,,1.36,WUHU21636XXSP,2013-06-25 23:58:00,
2013-06-25 19:03:00,80.6,72.9,29.77,ENE,67,0.0,0.0,77,0.00,,,1.36,WUHU21636XXSP,2013-06-26 00:03:00,
2013-06-25 19:08:00,80.6,73.3,29.78,ENE,67,0.0,0.0,78,0.00,,,1.36,WUHU21636XXSP,2013-06-26 00:08:00,
2013-06-25 19:13:00,80.6,73.3,29.77,ENE,67,0.0,0.0,78,0.00,,,1.36,WUHU21636XXSP,2013-06-26 00:13:00,
2013-06-25 19:17:00,80.6,73.3,29.77,ENE,67,0.0,0.0,78,0.00,,,1.36,WUHU21636XXSP,2013-06-26 00:17:00,
2013-06-25 19:23:00,80.4,73.1,29.77,ENE,67,0.0,0.0,78,0.00,,,1.36,WUHU21636XXSP,2013-06-26 00:23:00,
2013-06-25 19:27:00,80.4,73.1,29.77,ENE,67,0.0,0.0,78,0.00,,,1.36,WUHU21636XXSP,2013-06-26 00:27:00,
2013-06-25 19:32:00,80.2,72.9,29.77,ENE,67,0.0,0.0,78,0.00,,,1.36,WUHU21636XXSP,2013-06-26 00:32:00,
2013-06-25 19:37:00,80.2,72.9,29.77,ENE,67,0.0,0.0,78,0.00,,,1.36,WUHU21636XXSP,2013-06-26 00:37:00,
2013-06-25 19:42:00,79.9,72.6,29.76,ENE,67,0.0,0.0,78,0.00,,,1.36,WUHU21636XXSP,2013-06-26 00:42:00,
2013-06-25 19:48:00,79.9,72.6,29.77,ENE,67,0.0,0.0,78,0.00,,,1.36,WUHU21636XXSP,2013-06-26 00:48:00,
2013-06-25 19:53:00,79.7,72.4,29.77,ENE,67,0.0,0.0,78,0.00,,,1.36,WUHU21636XXSP,2013-06-26 00:53:00,
2013-06-25 19:58:00,79.3,72.0,29.77,ENE,67,0.0,0.0,78,0.00,,,1.36,WUHU21636XXSP,2013-06-26 00:58:00,
2013-06-25 20:03:00,79.3,72.3,29.77,ENE,67,0.0,0.0,79,0.00,,,1.36,WUHU21636XXSP,2013-06-26 01:03:00,
2013-06-25 20:07:00,79.3,72.3,29.77,ENE,67,0.0,0.0,79,0.00,,,1.36,WUHU21636XXSP,2013-06-26 01:07:00,
2013-06-25 20:12:00,79.1,72.1,29.77,ENE,67,0.0,0.0,79,0.00,,,1.36,WUHU21636XXSP,2013-06-26 01:12:00,
2013-06-25 20:17:00,79.0,72.0,29.77,ENE,67,0.0,0.0,79,0.00,,,1.36,WUHU21636XXSP,2013-06-26 01:17:00,
2013-06-25 20:22:00,78.8,71.8,29.76,ENE,67,0.0,0.0,79,0.00,,,1.36,WUHU21636XXSP,2013-06-26 01:22:00,
2013-06-25 20:27:00,78.3,71.8,29.76,ENE,67,0.0,0.0,80,0.00,,,1.36,WUHU21636XXSP,2013-06-26 01:27:00,
2013-06-25 20:28:00,78.3,71.8,29.76,ENE,67,0.0,0.0,80,0.00,,,1.36,WUHU21636XXSP,2013-06-26 01:28:00,
2013-06-25 20:33:00,78.3,71.8,29.76,ENE,67,0.0,0.0,80,0.00,,,1.36,WUHU21636XXSP,2013-06-26 01:33:00,
2013-06-25 20:38:00,78.1,71.6,29.76,ENE,67,0.0,0.0,80,0.00,,,1.36,WUHU21636XXSP,2013-06-26 01:38:00,
2013-06-25 20:43:00,78.0,71.5,29.76,ENE,67,0.0,0.0,80,0.00,,,1.36,WUHU21636XXSP,2013-06-26 01:43:00,
2013-06-25 20:48:00,78.0,71.5,29.76,ENE,67,0.0,0.0,80,0.00,,,1.36,WUHU21636XXSP,2013-06-26 01:48:00,
2013-06-25 20:53:00,77.8,71.2,29.76,ENE,67,0.0,0.0,80,0.00,,,1.36,WUHU21636XXSP,2013-06-26 01:53:00,
2013-06-25 20:58:00,77.4,70.8,29.76,ENE,67,0.0,0.0,80,0.00,,,1.36,WUHU21636XXSP,2013-06-26 01:58:00,
2013-06-25 21:03:00,77.2,70.6,29.76,ENE,67,0.0,0.0,80,0.00,,,1.36,WUHU21636XXSP,2013-06-26 02:03:00,
2013-06-25 21:08:00,77.2,70.6,29.76,ENE,67,0.0,0.0,80,0.00,,,1.36,WUHU21636XXSP,2013-06-26 02:08:00,
2013-06-25 21:13:00,76.9,70.7,29.76,ENE,67,0.0,0.0,81,0.00,,,1.36,WUHU21636XXSP,2013-06-26 02:13:00,
2013-06-25 21:18:00,76.9,70.7,29.76,ENE,67,0.0,0.0,81,0.00,,,1.36,WUHU21636XXSP,2013-06-26 02:18:00,
2013-06-25 21:23:00,76.4,70.3,29.76,ENE,67,0.0,0.0,81,0.00,,,1.36,WUHU21636XXSP,2013-06-26 02:23:00,
2013-06-25 21:28:00,76.2,70.1,29.76,ENE,67,0.0,0.0,81,0.00,,,1.36,WUHU21636XXSP,2013-06-26 02:28:00,
2013-06-25 21:33:00,76.2,69.7,29.76,ENE,67,0.0,0.0,80,0.00,,,1.36,WUHU21636XXSP,2013-06-26 02:33:00,
2013-06-25 21:38:00,75.9,69.8,29.76,ENE,67,0.0,0.0,81,0.00,,,1.36,WUHU21636XXSP,2013-06-26 02:38:00,
2013-06-25 21:43:00,75.7,69.5,29.76,ENE,67,0.0,0.0,81,0.00,,,1.36,WUHU21636XXSP,2013-06-26 02:43:00,
2013-06-25 21:48:00,75.3,69.1,29.76,ENE,67,0.0,0.0,81,0.00,,,1.36,WUHU21636XXSP,2013-06-26 02:48:00,
2013-06-25 21:53:00,75.3,69.1,29.76,ENE,67,0.0,0.0,81,0.00,,,1.36,WUHU21636XXSP,2013-06-26 02:53:00,
2013-06-25 21:58:00,75.2,69.0,29.76,ENE,67,0.0,0.0,81,0.00,,,1.36,WUHU21636XXSP,2013-06-26 02:58:00,
2013-06-25 22:03:00,75.0,69.2,29.77,ENE,67,0.0,0.0,82,0.00,,,1.36,WUHU21636XXSP,2013-06-26 03:03:00,
2013-06-25 22:08:00,74.8,69.0,29.77,ENE,67,0.0,0.0,82,0.00,,,1.36,WUHU21636XXSP,2013-06-26 03:08:00,
2013-06-25 22:13:00,74.6,68.8,29.77,ENE,67,0.0,0.0,82,0.00,,,1.36,WUHU21636XXSP,2013-06-26 03:13:00,
2013-06-25 22:18:00,74.3,68.6,29.77,ENE,67,0.0,0.0,82,0.00,,,1.36,WUHU21636XXSP,2013-06-26 03:18:00,
2013-06-25 22:23:00,74.3,68.6,29.77,ENE,67,0.0,0.0,82,0.00,,,1.36,WUHU21636XXSP,2013-06-26 03:23:00,
2013-06-25 22:28:00,74.2,68.5,29.77,ENE,67,0.0,0.0,82,0.00,,,1.36,WUHU21636XXSP,2013-06-26 03:28:00,
2013-06-25 22:33:00,74.0,68.3,29.77,ENE,67,0.0,0.0,82,0.00,,,1.36,WUHU21636XXSP,2013-06-26 03:33:00,
2013-06-25 22:38:00,73.8,68.0,29.77,ENE,67,0.0,0.0,82,0.00,,,1.36,WUHU21636XXSP,2013-06-26 03:38:00,
2013-06-25 22:43:00,73.6,67.8,29.77,ENE,67,0.0,0.0,82,0.00,,,1.36,WUHU21636XXSP,2013-06-26 03:43:00,
2013-06-25 22:48:00,73.6,67.8,29.76,ENE,67,0.0,0.0,82,0.00,,,1.36,WUHU21636XXSP,2013-06-26 03:48:00,
2013-06-25 22:53:00,73.4,67.6,29.76,ENE,67,0.0,0.0,82,0.00,,,1.36,WUHU21636XXSP,2013-06-26 03:53:00,
2013-06-25 22:58:00,73.4,67.6,29.76,ENE,67,0.0,0.0,82,0.00,,,1.36,WUHU21636XXSP,2013-06-26 03:58:00,
2013-06-25 23:01:00,73.4,68.0,29.76,ENE,67,0.0,0.0,83,0.00,,,1.36,WUHU21636XXSP,2013-06-26 04:01:00,
2013-06-25 23:02:00,73.4,68.0,29.76,ENE,67,0.0,0.0,83,0.00,,,1.36,WUHU21636XXSP,2013-06-26 04:02:00,
2013-06-25 23:07:00,73.3,67.9,29.76,ENE,67,0.0,0.0,83,0.00,,,1.36,WUHU21636XXSP,2013-06-26 04:07:00,
2013-06-25 23:12:00,73.1,67.7,29.76,ENE,67,0.0,0.0,83,0.00,,,1.36,WUHU21636XXSP,2013-06-26 04:12:00,
2013-06-25 23:17:00,73.1,67.7,29.76,ENE,67,0.0,0.0,83,0.00,,,1.36,WUHU21636XXSP,2013-06-26 04:17:00,
2013-06-25 23:22:00,72.9,67.5,29.76,ENE,67,0.0,0.0,83,0.00,,,1.36,WUHU21636XXSP,2013-06-26 04:22:00,
2013-06-25 23:27:00,72.9,67.5,29.75,ENE,67,0.0,0.0,83,0.00,,,1.36,WUHU21636XXSP,2013-06-26 04:27:00,
2013-06-25 23:32:00,72.7,67.3,29.75,ENE,67,0.0,0.0,83,0.00,,,1.36,WUHU21636XXSP,2013-06-26 04:32:00,
2013-06-25 23:37:00,72.7,67.3,29.75,ENE,67,0.0,0.0,83,0.00,,,1.36,WUHU21636XXSP,2013-06-26 04:37:00,
2013-06-25 23:42:00,72.4,67.0,29.75,ENE,67,0.0,0.0,83,0.00,,,1.36,WUHU21636XXSP,2013-06-26 04:42:00,
2013-06-25 23:47:00,72.4,67.0,29.75,ENE,67,0.0,0.0,83,0.00,,,1.36,WUHU21636XXSP,2013-06-26 04:47:00,
2013-06-25 23:52:00,72.3,66.9,29.75,ENE,67,0.0,0.0,83,0.00,,,1.36,WUHU21636XXSP,2013-06-26 04:52:00,
2013-06-25 23:57:00,72.3,66.9,29.75,ENE,67,0.0,0.0,83,0.00,,,1.36,WUHU21636XXSP,2013-06-26 04:57:00,